Falcon, Texas
Current Conditions -  °F | °C
As of 9:15 PM on Friday 21 Nov 2014 (Local Time) from KAPY Reporting Station
Overcast Overcast  
Wind Chill: 72°   Ceiling: 1600
Heat Index: 72°   Visibility: 10mi
Dew Point: 67°   Wind: 16mph
Humidity: 84%   Direction: 140°SE
Pressure: 29.98"   Gusts: 23mph
Location:  26.5818°N, 98.985°W
Report Text: KAPY 220315Z AUTO 14014G20KT 10SM BKN016 OVC026 22/19 A2998 RMK AO2 T02220193
Loading
Personal Weather Stations






























Interactive Weather Map New forecast layout! Learn more

10-Day Weather Forecast

Advertisements
Track Severe Weather on mobile